sensor_id;sensor_type;location;lat;lon;timestamp;P1;durP1;ratioP1;P2;durP2;ratioP2
45676;SDS011;31390;51.186;6.830;2022-07-10T00:02:11;4.00;;;1.40;;
45676;SDS011;31390;51.186;6.830;2022-07-10T00:04:38;3.15;;;1.48;;
45676;SDS011;31390;51.186;6.830;2022-07-10T00:07:05;4.28;;;1.60;;
45676;SDS011;31390;51.186;6.830;2022-07-10T00:09:32;6.80;;;1.73;;
45676;SDS011;31390;51.186;6.830;2022-07-10T00:11:59;4.97;;;1.90;;
45676;SDS011;31390;51.186;6.830;2022-07-10T00:14:25;4.70;;;2.10;;
45676;SDS011;31390;51.186;6.830;2022-07-10T00:16:52;4.68;;;1.90;;
45676;SDS011;31390;51.186;6.830;2022-07-10T00:19:19;4.95;;;1.80;;
45676;SDS011;31390;51.186;6.830;2022-07-10T00:21:46;6.50;;;1.85;;
45676;SDS011;31390;51.186;6.830;2022-07-10T00:24:12;6.38;;;2.10;;
45676;SDS011;31390;51.186;6.830;2022-07-10T00:26:39;4.70;;;1.85;;
45676;SDS011;31390;51.186;6.830;2022-07-10T00:29:06;6.05;;;1.73;;
45676;SDS011;31390;51.186;6.830;2022-07-10T00:31:35;5.18;;;2.20;;
45676;SDS011;31390;51.186;6.830;2022-07-10T00:34:01;5.68;;;1.80;;
45676;SDS011;31390;51.186;6.830;2022-07-10T00:36:28;5.72;;;1.92;;
45676;SDS011;31390;51.186;6.830;2022-07-10T00:38:54;5.68;;;1.50;;
45676;SDS011;31390;51.186;6.830;2022-07-10T00:41:21;4.55;;;1.80;;
45676;SDS011;31390;51.186;6.830;2022-07-10T00:43:57;4.75;;;1.65;;
45676;SDS011;31390;51.186;6.830;2022-07-10T00:46:25;7.03;;;2.10;;
45676;SDS011;31390;51.186;6.830;2022-07-10T00:48:53;4.57;;;1.77;;
45676;SDS011;31390;51.186;6.830;2022-07-10T00:51:20;3.83;;;1.58;;
45676;SDS011;31390;51.186;6.830;2022-07-10T00:53:47;4.38;;;1.80;;
45676;SDS011;31390;51.186;6.830;2022-07-10T00:56:18;4.22;;;1.50;;
45676;SDS011;31390;51.186;6.830;2022-07-10T00:58:45;4.80;;;1.85;;
45676;SDS011;31390;51.186;6.830;2022-07-10T01:01:13;5.90;;;1.60;;
45676;SDS011;31390;51.186;6.830;2022-07-10T01:03:40;5.30;;;1.50;;
45676;SDS011;31390;51.186;6.830;2022-07-10T01:06:06;4.13;;;1.70;;
45676;SDS011;31390;51.186;6.830;2022-07-10T01:08:33;2.05;;;1.15;;
45676;SDS011;31390;51.186;6.830;2022-07-10T01:11:00;4.93;;;1.67;;
45676;SDS011;31390;51.186;6.830;2022-07-10T01:13:26;4.85;;;1.40;;
45676;SDS011;31390;51.186;6.830;2022-07-10T01:15:53;6.47;;;1.80;;
45676;SDS011;31390;51.186;6.830;2022-07-10T01:18:20;4.43;;;1.58;;
45676;SDS011;31390;51.186;6.830;2022-07-10T01:20:50;2.88;;;1.30;;
45676;SDS011;31390;51.186;6.830;2022-07-10T01:23:17;2.72;;;1.30;;
45676;SDS011;31390;51.186;6.830;2022-07-10T01:25:43;3.42;;;1.38;;
45676;SDS011;31390;51.186;6.830;2022-07-10T01:28:10;3.72;;;1.35;;
45676;SDS011;31390;51.186;6.830;2022-07-10T01:30:37;7.50;;;1.92;;
45676;SDS011;31390;51.186;6.830;2022-07-10T01:33:03;5.93;;;1.30;;
45676;SDS011;31390;51.186;6.830;2022-07-10T01:35:30;4.88;;;1.85;;
45676;SDS011;31390;51.186;6.830;2022-07-10T01:37:56;3.55;;;1.33;;
45676;SDS011;31390;51.186;6.830;2022-07-10T01:40:23;6.05;;;1.80;;
45676;SDS011;31390;51.186;6.830;2022-07-10T01:42:50;6.07;;;2.15;;
45676;SDS011;31390;51.186;6.830;2022-07-10T01:45:16;4.30;;;1.63;;
45676;SDS011;31390;51.186;6.830;2022-07-10T01:47:44;3.33;;;1.63;;
45676;SDS011;31390;51.186;6.830;2022-07-10T01:50:10;4.22;;;1.75;;
45676;SDS011;31390;51.186;6.830;2022-07-10T01:52:37;3.85;;;2.00;;
45676;SDS011;31390;51.186;6.830;2022-07-10T01:55:04;3.70;;;1.95;;
45676;SDS011;31390;51.186;6.830;2022-07-10T01:57:31;9.60;;;2.72;;
45676;SDS011;31390;51.186;6.830;2022-07-10T01:59:57;4.88;;;1.70;;
45676;SDS011;31390;51.186;6.830;2022-07-10T02:02:24;6.78;;;2.20;;
45676;SDS011;31390;51.186;6.830;2022-07-10T02:04:51;5.88;;;1.60;;
45676;SDS011;31390;51.186;6.830;2022-07-10T02:07:18;6.85;;;1.38;;
45676;SDS011;31390;51.186;6.830;2022-07-10T02:09:48;3.88;;;1.60;;
45676;SDS011;31390;51.186;6.830;2022-07-10T02:12:15;4.70;;;1.90;;
45676;SDS011;31390;51.186;6.830;2022-07-10T02:14:42;4.90;;;1.88;;
45676;SDS011;31390;51.186;6.830;2022-07-10T02:17:09;4.40;;;1.98;;
45676;SDS011;31390;51.186;6.830;2022-07-10T02:19:35;5.57;;;1.75;;
45676;SDS011;31390;51.186;6.830;2022-07-10T02:22:02;4.32;;;1.70;;
45676;SDS011;31390;51.186;6.830;2022-07-10T02:24:28;4.13;;;2.05;;
45676;SDS011;31390;51.186;6.830;2022-07-10T02:26:55;4.38;;;1.85;;
45676;SDS011;31390;51.186;6.830;2022-07-10T02:29:23;6.97;;;2.47;;
45676;SDS011;31390;51.186;6.830;2022-07-10T02:31:49;5.93;;;1.80;;
45676;SDS011;31390;51.186;6.830;2022-07-10T02:34:16;6.60;;;2.17;;
45676;SDS011;31390;51.186;6.830;2022-07-10T02:36:43;4.28;;;1.98;;
45676;SDS011;31390;51.186;6.830;2022-07-10T02:39:09;3.80;;;1.75;;
45676;SDS011;31390;51.186;6.830;2022-07-10T02:41:36;5.82;;;2.10;;
45676;SDS011;31390;51.186;6.830;2022-07-10T02:44:03;5.95;;;2.15;;
45676;SDS011;31390;51.186;6.830;2022-07-10T02:46:29;6.97;;;1.98;;
45676;SDS011;31390;51.186;6.830;2022-07-10T02:48:56;7.07;;;2.25;;
45676;SDS011;31390;51.186;6.830;2022-07-10T02:51:22;6.45;;;1.98;;
45676;SDS011;31390;51.186;6.830;2022-07-10T02:53:49;5.30;;;1.70;;
45676;SDS011;31390;51.186;6.830;2022-07-10T02:56:16;5.32;;;2.13;;
45676;SDS011;31390;51.186;6.830;2022-07-10T02:58:42;3.90;;;1.80;;
45676;SDS011;31390;51.186;6.830;2022-07-10T03:01:09;3.20;;;1.65;;
45676;SDS011;31390;51.186;6.830;2022-07-10T03:03:35;6.20;;;2.10;;
45676;SDS011;31390;51.186;6.830;2022-07-10T03:06:02;2.92;;;1.52;;
45676;SDS011;31390;51.186;6.830;2022-07-10T03:08:29;6.68;;;1.98;;
45676;SDS011;31390;51.186;6.830;2022-07-10T03:10:56;4.20;;;1.48;;
45676;SDS011;31390;51.186;6.830;2022-07-10T03:13:23;3.17;;;1.40;;
45676;SDS011;31390;51.186;6.830;2022-07-10T03:15:52;3.80;;;1.55;;
45676;SDS011;31390;51.186;6.830;2022-07-10T03:18:19;5.75;;;1.90;;
45676;SDS011;31390;51.186;6.830;2022-07-10T03:20:46;5.22;;;1.60;;
45676;SDS011;31390;51.186;6.830;2022-07-10T03:23:12;5.00;;;1.77;;
45676;SDS011;31390;51.186;6.830;2022-07-10T03:25:39;3.88;;;1.63;;
45676;SDS011;31390;51.186;6.830;2022-07-10T03:28:05;6.13;;;1.92;;
45676;SDS011;31390;51.186;6.830;2022-07-10T03:30:32;3.30;;;1.80;;
45676;SDS011;31390;51.186;6.830;2022-07-10T03:32:59;4.05;;;1.77;;
45676;SDS011;31390;51.186;6.830;2022-07-10T03:35:25;5.70;;;2.10;;
45676;SDS011;31390;51.186;6.830;2022-07-10T03:37:52;5.97;;;1.83;;
45676;SDS011;31390;51.186;6.830;2022-07-10T03:40:18;5.13;;;2.20;;
45676;SDS011;31390;51.186;6.830;2022-07-10T03:42:46;4.53;;;1.75;;
45676;SDS011;31390;51.186;6.830;2022-07-10T03:45:13;4.05;;;1.60;;
45676;SDS011;31390;51.186;6.830;2022-07-10T03:47:39;5.43;;;1.65;;
45676;SDS011;31390;51.186;6.830;2022-07-10T03:50:06;6.00;;;1.73;;
45676;SDS011;31390;51.186;6.830;2022-07-10T03:52:32;5.20;;;1.80;;
45676;SDS011;31390;51.186;6.830;2022-07-10T03:54:59;3.80;;;1.67;;
45676;SDS011;31390;51.186;6.830;2022-07-10T03:57:25;5.65;;;1.52;;
45676;SDS011;31390;51.186;6.830;2022-07-10T04:00:11;3.80;;;1.60;;
45676;SDS011;31390;51.186;6.830;2022-07-10T04:02:38;2.83;;;1.45;;
45676;SDS011;31390;51.186;6.830;2022-07-10T04:05:05;7.85;;;2.13;;
45676;SDS011;31390;51.186;6.830;2022-07-10T04:07:32;4.85;;;1.83;;
45676;SDS011;31390;51.186;6.830;2022-07-10T04:09:59;2.45;;;1.20;;
45676;SDS011;31390;51.186;6.830;2022-07-10T04:12:25;4.45;;;1.88;;
45676;SDS011;31390;51.186;6.830;2022-07-10T04:14:52;5.82;;;1.80;;
45676;SDS011;31390;51.186;6.830;2022-07-10T04:17:18;2.90;;;1.42;;
45676;SDS011;31390;51.186;6.830;2022-07-10T04:19:45;6.05;;;1.65;;
45676;SDS011;31390;51.186;6.830;2022-07-10T04:22:12;4.43;;;1.45;;
45676;SDS011;31390;51.186;6.830;2022-07-10T04:24:39;4.80;;;1.65;;
45676;SDS011;31390;51.186;6.830;2022-07-10T04:27:05;6.40;;;1.80;;
45676;SDS011;31390;51.186;6.830;2022-07-10T04:29:33;4.13;;;1.80;;
45676;SDS011;31390;51.186;6.830;2022-07-10T04:31:59;5.03;;;1.65;;
45676;SDS011;31390;51.186;6.830;2022-07-10T04:34:26;6.65;;;1.95;;
45676;SDS011;31390;51.186;6.830;2022-07-10T04:36:52;4.30;;;1.73;;
45676;SDS011;31390;51.186;6.830;2022-07-10T04:39:20;5.75;;;2.40;;
45676;SDS011;31390;51.186;6.830;2022-07-10T04:41:48;5.75;;;1.90;;
45676;SDS011;31390;51.186;6.830;2022-07-10T04:44:14;5.60;;;2.17;;
45676;SDS011;31390;51.186;6.830;2022-07-10T04:46:41;5.35;;;2.10;;
45676;SDS011;31390;51.186;6.830;2022-07-10T04:49:08;4.60;;;1.90;;
45676;SDS011;31390;51.186;6.830;2022-07-10T04:51:34;9.07;;;2.47;;
45676;SDS011;31390;51.186;6.830;2022-07-10T04:54:01;4.45;;;1.73;;
45676;SDS011;31390;51.186;6.830;2022-07-10T04:56:27;5.80;;;1.70;;
45676;SDS011;31390;51.186;6.830;2022-07-10T04:58:54;3.47;;;1.85;;
45676;SDS011;31390;51.186;6.830;2022-07-10T05:01:20;6.65;;;2.45;;
45676;SDS011;31390;51.186;6.830;2022-07-10T05:03:47;6.78;;;2.45;;
45676;SDS011;31390;51.186;6.830;2022-07-10T05:06:14;4.15;;;2.08;;
45676;SDS011;31390;51.186;6.830;2022-07-10T05:08:40;4.50;;;1.70;;
45676;SDS011;31390;51.186;6.830;2022-07-10T05:11:07;5.80;;;2.22;;
45676;SDS011;31390;51.186;6.830;2022-07-10T05:13:34;4.82;;;1.88;;
45676;SDS011;31390;51.186;6.830;2022-07-10T05:16:00;3.75;;;2.13;;
45676;SDS011;31390;51.186;6.830;2022-07-10T05:18:30;6.38;;;2.25;;
45676;SDS011;31390;51.186;6.830;2022-07-10T05:20:57;3.75;;;1.90;;
45676;SDS011;31390;51.186;6.830;2022-07-10T05:23:23;6.40;;;2.33;;
45676;SDS011;31390;51.186;6.830;2022-07-10T05:25:50;5.07;;;2.03;;
45676;SDS011;31390;51.186;6.830;2022-07-10T05:28:16;6.75;;;1.90;;
45676;SDS011;31390;51.186;6.830;2022-07-10T05:30:43;5.38;;;1.80;;
45676;SDS011;31390;51.186;6.830;2022-07-10T05:33:10;4.20;;;1.70;;
45676;SDS011;31390;51.186;6.830;2022-07-10T05:35:36;5.25;;;2.00;;
45676;SDS011;31390;51.186;6.830;2022-07-10T05:38:03;4.63;;;2.10;;
45676;SDS011;31390;51.186;6.830;2022-07-10T05:40:29;5.38;;;2.13;;
45676;SDS011;31390;51.186;6.830;2022-07-10T05:42:56;5.57;;;1.70;;
45676;SDS011;31390;51.186;6.830;2022-07-10T05:45:22;5.80;;;1.90;;
45676;SDS011;31390;51.186;6.830;2022-07-10T05:47:49;3.95;;;1.98;;
45676;SDS011;31390;51.186;6.830;2022-07-10T05:50:16;4.43;;;1.60;;
45676;SDS011;31390;51.186;6.830;2022-07-10T05:52:42;4.88;;;2.05;;
45676;SDS011;31390;51.186;6.830;2022-07-10T05:55:09;5.30;;;1.67;;
45676;SDS011;31390;51.186;6.830;2022-07-10T05:57:35;7.07;;;2.28;;
45676;SDS011;31390;51.186;6.830;2022-07-10T06:00:05;5.18;;;2.22;;
45676;SDS011;31390;51.186;6.830;2022-07-10T06:02:38;5.82;;;2.17;;
45676;SDS011;31390;51.186;6.830;2022-07-10T06:05:05;4.57;;;2.13;;
45676;SDS011;31390;51.186;6.830;2022-07-10T06:07:32;3.80;;;1.92;;
45676;SDS011;31390;51.186;6.830;2022-07-10T06:09:58;6.95;;;2.63;;
45676;SDS011;31390;51.186;6.830;2022-07-10T06:12:25;5.18;;;2.22;;
45676;SDS011;31390;51.186;6.830;2022-07-10T06:14:51;4.47;;;2.22;;
45676;SDS011;31390;51.186;6.830;2022-07-10T06:17:18;5.07;;;2.03;;
45676;SDS011;31390;51.186;6.830;2022-07-10T06:19:44;5.70;;;2.33;;
45676;SDS011;31390;51.186;6.830;2022-07-10T06:22:11;5.88;;;2.10;;
45676;SDS011;31390;51.186;6.830;2022-07-10T06:25:01;6.03;;;1.90;;
45676;SDS011;31390;51.186;6.830;2022-07-10T06:27:27;6.28;;;2.17;;
45676;SDS011;31390;51.186;6.830;2022-07-10T06:29:54;5.68;;;2.45;;
45676;SDS011;31390;51.186;6.830;2022-07-10T06:32:21;7.95;;;2.70;;
45676;SDS011;31390;51.186;6.830;2022-07-10T06:34:48;5.18;;;2.08;;
45676;SDS011;31390;51.186;6.830;2022-07-10T06:37:15;5.10;;;2.05;;
45676;SDS011;31390;51.186;6.830;2022-07-10T06:39:41;3.47;;;1.70;;
45676;SDS011;31390;51.186;6.830;2022-07-10T06:42:08;6.65;;;2.30;;
45676;SDS011;31390;51.186;6.830;2022-07-10T06:44:39;4.07;;;1.85;;
45676;SDS011;31390;51.186;6.830;2022-07-10T06:47:06;6.28;;;2.35;;
45676;SDS011;31390;51.186;6.830;2022-07-10T06:49:54;3.65;;;1.88;;
45676;SDS011;31390;51.186;6.830;2022-07-10T06:52:21;5.93;;;2.05;;
45676;SDS011;31390;51.186;6.830;2022-07-10T06:54:48;4.35;;;2.42;;
45676;SDS011;31390;51.186;6.830;2022-07-10T06:57:14;5.80;;;2.17;;
45676;SDS011;31390;51.186;6.830;2022-07-10T06:59:41;5.38;;;2.47;;
45676;SDS011;31390;51.186;6.830;2022-07-10T07:02:08;5.28;;;2.40;;
45676;SDS011;31390;51.186;6.830;2022-07-10T07:04:34;3.40;;;2.22;;
45676;SDS011;31390;51.186;6.830;2022-07-10T07:07:01;4.03;;;2.25;;
45676;SDS011;31390;51.186;6.830;2022-07-10T07:09:28;6.32;;;2.40;;
45676;SDS011;31390;51.186;6.830;2022-07-10T07:11:55;7.63;;;2.53;;
45676;SDS011;31390;51.186;6.830;2022-07-10T07:14:21;4.07;;;2.28;;
45676;SDS011;31390;51.186;6.830;2022-07-10T07:16:48;7.65;;;2.50;;
45676;SDS011;31390;51.186;6.830;2022-07-10T07:19:24;5.07;;;2.22;;
45676;SDS011;31390;51.186;6.830;2022-07-10T07:21:58;7.03;;;2.95;;
45676;SDS011;31390;51.186;6.830;2022-07-10T07:24:43;7.32;;;2.90;;
45676;SDS011;31390;51.186;6.830;2022-07-10T07:27:10;6.70;;;2.40;;
45676;SDS011;31390;51.186;6.830;2022-07-10T07:29:37;6.35;;;2.20;;
45676;SDS011;31390;51.186;6.830;2022-07-10T07:32:04;6.15;;;2.60;;
45676;SDS011;31390;51.186;6.830;2022-07-10T07:34:30;5.60;;;2.40;;
45676;SDS011;31390;51.186;6.830;2022-07-10T07:36:59;4.43;;;2.47;;
45676;SDS011;31390;51.186;6.830;2022-07-10T07:39:26;5.93;;;2.58;;
45676;SDS011;31390;51.186;6.830;2022-07-10T07:41:52;6.95;;;2.72;;
45676;SDS011;31390;51.186;6.830;2022-07-10T07:44:19;4.25;;;2.53;;
45676;SDS011;31390;51.186;6.830;2022-07-10T07:46:52;5.45;;;2.22;;
45676;SDS011;31390;51.186;6.830;2022-07-10T07:49:19;6.13;;;2.75;;
45676;SDS011;31390;51.186;6.830;2022-07-10T07:51:45;5.70;;;2.95;;
45676;SDS011;31390;51.186;6.830;2022-07-10T07:54:12;5.40;;;3.00;;
45676;SDS011;31390;51.186;6.830;2022-07-10T07:56:38;8.63;;;3.97;;
45676;SDS011;31390;51.186;6.830;2022-07-10T07:59:05;8.75;;;4.45;;
45676;SDS011;31390;51.186;6.830;2022-07-10T08:01:32;7.68;;;4.35;;
45676;SDS011;31390;51.186;6.830;2022-07-10T08:03:58;9.55;;;4.50;;
45676;SDS011;31390;51.186;6.830;2022-07-10T08:06:35;7.45;;;4.90;;
45676;SDS011;31390;51.186;6.830;2022-07-10T08:09:02;9.13;;;5.07;;
45676;SDS011;31390;51.186;6.830;2022-07-10T08:11:28;7.75;;;4.78;;
45676;SDS011;31390;51.186;6.830;2022-07-10T08:13:57;7.30;;;4.68;;
45676;SDS011;31390;51.186;6.830;2022-07-10T08:16:24;7.35;;;4.10;;
45676;SDS011;31390;51.186;6.830;2022-07-10T08:18:51;6.78;;;3.28;;
45676;SDS011;31390;51.186;6.830;2022-07-10T08:21:17;9.30;;;3.70;;
45676;SDS011;31390;51.186;6.830;2022-07-10T08:23:44;7.65;;;3.70;;
45676;SDS011;31390;51.186;6.830;2022-07-10T08:26:11;5.43;;;2.90;;
45676;SDS011;31390;51.186;6.830;2022-07-10T08:28:37;4.93;;;2.97;;
45676;SDS011;31390;51.186;6.830;2022-07-10T08:31:04;6.68;;;3.25;;
45676;SDS011;31390;51.186;6.830;2022-07-10T08:33:38;5.97;;;3.22;;
45676;SDS011;31390;51.186;6.830;2022-07-10T08:36:05;5.50;;;3.13;;
45676;SDS011;31390;51.186;6.830;2022-07-10T08:38:52;4.78;;;2.80;;
45676;SDS011;31390;51.186;6.830;2022-07-10T08:41:24;5.50;;;2.90;;
45676;SDS011;31390;51.186;6.830;2022-07-10T08:43:51;9.20;;;3.47;;
45676;SDS011;31390;51.186;6.830;2022-07-10T08:46:17;5.63;;;2.47;;
45676;SDS011;31390;51.186;6.830;2022-07-10T08:48:48;5.47;;;2.38;;
45676;SDS011;31390;51.186;6.830;2022-07-10T08:51:24;6.47;;;2.35;;
45676;SDS011;31390;51.186;6.830;2022-07-10T08:53:51;4.32;;;2.20;;
45676;SDS011;31390;51.186;6.830;2022-07-10T08:56:19;6.22;;;2.33;;
45676;SDS011;31390;51.186;6.830;2022-07-10T08:58:46;3.42;;;2.28;;
45676;SDS011;31390;51.186;6.830;2022-07-10T09:01:12;7.80;;;2.67;;
45676;SDS011;31390;51.186;6.830;2022-07-10T09:03:39;4.63;;;2.33;;
45676;SDS011;31390;51.186;6.830;2022-07-10T09:06:06;6.68;;;2.65;;
45676;SDS011;31390;51.186;6.830;2022-07-10T09:08:33;6.60;;;2.85;;
45676;SDS011;31390;51.186;6.830;2022-07-10T09:11:16;4.22;;;2.30;;
45676;SDS011;31390;51.186;6.830;2022-07-10T09:13:52;5.53;;;2.63;;
45676;SDS011;31390;51.186;6.830;2022-07-10T09:16:25;5.10;;;2.33;;
45676;SDS011;31390;51.186;6.830;2022-07-10T09:18:52;7.90;;;3.47;;
45676;SDS011;31390;51.186;6.830;2022-07-10T09:21:19;6.50;;;3.25;;
45676;SDS011;31390;51.186;6.830;2022-07-10T09:23:51;3.72;;;2.70;;
45676;SDS011;31390;51.186;6.830;2022-07-10T09:26:21;5.43;;;3.20;;
45676;SDS011;31390;51.186;6.830;2022-07-10T09:28:48;6.93;;;3.95;;
45676;SDS011;31390;51.186;6.830;2022-07-10T09:31:19;9.32;;;4.22;;
45676;SDS011;31390;51.186;6.830;2022-07-10T09:33:45;4.32;;;2.17;;
45676;SDS011;31390;51.186;6.830;2022-07-10T09:36:12;4.50;;;2.47;;
45676;SDS011;31390;51.186;6.830;2022-07-10T09:41:16;3.55;;;2.00;;
45676;SDS011;31390;51.186;6.830;2022-07-10T09:43:43;5.35;;;2.47;;
45676;SDS011;31390;51.186;6.830;2022-07-10T09:46:11;4.78;;;2.15;;
45676;SDS011;31390;51.186;6.830;2022-07-10T09:48:37;7.85;;;2.35;;
45676;SDS011;31390;51.186;6.830;2022-07-10T09:51:07;4.15;;;2.03;;
45676;SDS011;31390;51.186;6.830;2022-07-10T09:53:37;4.05;;;2.28;;
45676;SDS011;31390;51.186;6.830;2022-07-10T09:56:05;5.78;;;2.30;;
45676;SDS011;31390;51.186;6.830;2022-07-10T09:58:32;8.18;;;2.25;;
45676;SDS011;31390;51.186;6.830;2022-07-10T10:01:04;5.85;;;2.33;;
45676;SDS011;31390;51.186;6.830;2022-07-10T10:03:39;4.70;;;2.22;;
45676;SDS011;31390;51.186;6.830;2022-07-10T10:06:18;6.22;;;2.13;;
45676;SDS011;31390;51.186;6.830;2022-07-10T10:08:51;7.50;;;2.47;;
45676;SDS011;31390;51.186;6.830;2022-07-10T10:11:19;7.63;;;2.10;;
45676;SDS011;31390;51.186;6.830;2022-07-10T10:13:49;5.00;;;2.10;;
45676;SDS011;31390;51.186;6.830;2022-07-10T10:16:17;4.90;;;2.10;;
45676;SDS011;31390;51.186;6.830;2022-07-10T10:18:47;5.68;;;2.22;;
45676;SDS011;31390;51.186;6.830;2022-07-10T10:21:34;4.43;;;1.90;;
45676;SDS011;31390;51.186;6.830;2022-07-10T10:24:02;3.65;;;2.10;;
45676;SDS011;31390;51.186;6.830;2022-07-10T10:26:29;4.70;;;2.42;;
45676;SDS011;31390;51.186;6.830;2022-07-10T10:28:56;5.00;;;2.30;;
45676;SDS011;31390;51.186;6.830;2022-07-10T10:31:24;5.40;;;2.28;;
45676;SDS011;31390;51.186;6.830;2022-07-10T10:33:54;3.67;;;2.00;;
45676;SDS011;31390;51.186;6.830;2022-07-10T10:39:11;4.03;;;2.13;;
45676;SDS011;31390;51.186;6.830;2022-07-10T10:46:36;3.00;;;2.03;;
45676;SDS011;31390;51.186;6.830;2022-07-10T10:49:20;4.07;;;2.00;;
45676;SDS011;31390;51.186;6.830;2022-07-10T10:52:00;4.28;;;2.20;;
45676;SDS011;31390;51.186;6.830;2022-07-10T10:54:32;3.30;;;2.10;;
45676;SDS011;31390;51.186;6.830;2022-07-10T10:57:15;1.73;;;1.60;;
45676;SDS011;31390;51.186;6.830;2022-07-10T11:04:52;3.72;;;1.48;;
45676;SDS011;31390;51.186;6.830;2022-07-10T11:15:25;1.35;;;1.10;;
45676;SDS011;31390;51.186;6.830;2022-07-10T11:17:52;2.97;;;1.30;;
45676;SDS011;31390;51.186;6.830;2022-07-10T11:20:19;1.80;;;1.23;;
45676;SDS011;31390;51.186;6.830;2022-07-10T11:22:47;3.75;;;1.30;;
45676;SDS011;31390;51.186;6.830;2022-07-10T11:25:31;2.10;;;1.30;;
45676;SDS011;31390;51.186;6.830;2022-07-10T11:28:08;2.17;;;1.30;;
45676;SDS011;31390;51.186;6.830;2022-07-10T11:33:11;2.50;;;1.60;;
45676;SDS011;31390;51.186;6.830;2022-07-10T11:35:38;2.17;;;1.70;;
45676;SDS011;31390;51.186;6.830;2022-07-10T11:38:05;3.65;;;2.00;;
45676;SDS011;31390;51.186;6.830;2022-07-10T11:40:36;2.30;;;1.50;;
45676;SDS011;31390;51.186;6.830;2022-07-10T11:43:03;3.13;;;2.30;;
45676;SDS011;31390;51.186;6.830;2022-07-10T11:45:32;3.45;;;1.95;;
45676;SDS011;31390;51.186;6.830;2022-07-10T11:48:00;3.13;;;2.15;;
45676;SDS011;31390;51.186;6.830;2022-07-10T11:50:27;4.55;;;2.67;;
45676;SDS011;31390;51.186;6.830;2022-07-10T11:52:54;2.25;;;1.92;;
45676;SDS011;31390;51.186;6.830;2022-07-10T11:55:21;3.10;;;2.25;;
45676;SDS011;31390;51.186;6.830;2022-07-10T11:57:49;3.80;;;2.42;;
45676;SDS011;31390;51.186;6.830;2022-07-10T12:02:53;4.75;;;2.70;;
45676;SDS011;31390;51.186;6.830;2022-07-10T12:05:33;3.97;;;2.90;;
45676;SDS011;31390;51.186;6.830;2022-07-10T12:08:00;4.78;;;2.80;;
45676;SDS011;31390;51.186;6.830;2022-07-10T12:10:28;3.13;;;2.30;;
45676;SDS011;31390;51.186;6.830;2022-07-10T12:13:11;2.75;;;1.80;;
45676;SDS011;31390;51.186;6.830;2022-07-10T12:15:39;2.97;;;2.08;;
45676;SDS011;31390;51.186;6.830;2022-07-10T12:18:06;2.97;;;2.13;;
45676;SDS011;31390;51.186;6.830;2022-07-10T12:20:33;4.63;;;2.33;;
45676;SDS011;31390;51.186;6.830;2022-07-10T12:23:00;6.28;;;2.50;;
45676;SDS011;31390;51.186;6.830;2022-07-10T12:25:27;3.95;;;2.15;;
45676;SDS011;31390;51.186;6.830;2022-07-10T12:27:57;3.53;;;1.80;;
45676;SDS011;31390;51.186;6.830;2022-07-10T12:30:37;6.38;;;2.47;;
45676;SDS011;31390;51.186;6.830;2022-07-10T12:35:47;5.30;;;2.40;;
45676;SDS011;31390;51.186;6.830;2022-07-10T12:38:15;4.68;;;2.75;;
45676;SDS011;31390;51.186;6.830;2022-07-10T12:40:43;3.47;;;2.55;;
45676;SDS011;31390;51.186;6.830;2022-07-10T12:43:09;4.90;;;2.83;;
45676;SDS011;31390;51.186;6.830;2022-07-10T12:45:38;6.30;;;2.47;;
45676;SDS011;31390;51.186;6.830;2022-07-10T12:48:05;5.93;;;2.92;;
45676;SDS011;31390;51.186;6.830;2022-07-10T12:50:34;6.00;;;2.92;;
45676;SDS011;31390;51.186;6.830;2022-07-10T12:53:08;5.93;;;3.13;;
45676;SDS011;31390;51.186;6.830;2022-07-10T12:55:36;4.93;;;3.10;;
45676;SDS011;31390;51.186;6.830;2022-07-10T12:58:05;5.68;;;2.65;;
45676;SDS011;31390;51.186;6.830;2022-07-10T13:00:33;4.90;;;2.55;;
45676;SDS011;31390;51.186;6.830;2022-07-10T13:03:08;4.00;;;3.00;;
45676;SDS011;31390;51.186;6.830;2022-07-10T13:05:36;4.57;;;2.60;;
45676;SDS011;31390;51.186;6.830;2022-07-10T13:10:41;5.95;;;2.83;;
45676;SDS011;31390;51.186;6.830;2022-07-10T13:13:08;4.45;;;2.60;;
45676;SDS011;31390;51.186;6.830;2022-07-10T13:15:35;5.55;;;2.80;;
45676;SDS011;31390;51.186;6.830;2022-07-10T13:18:07;5.53;;;2.38;;
45676;SDS011;31390;51.186;6.830;2022-07-10T13:20:34;4.78;;;2.35;;
45676;SDS011;31390;51.186;6.830;2022-07-10T13:23:01;5.25;;;2.38;;
45676;SDS011;31390;51.186;6.830;2022-07-10T13:25:27;3.97;;;2.35;;
45676;SDS011;31390;51.186;6.830;2022-07-10T13:27:54;4.60;;;2.47;;
45676;SDS011;31390;51.186;6.830;2022-07-10T13:30:20;5.40;;;2.50;;
45676;SDS011;31390;51.186;6.830;2022-07-10T13:32:47;3.65;;;2.50;;
45676;SDS011;31390;51.186;6.830;2022-07-10T13:35:13;5.10;;;2.28;;
45676;SDS011;31390;51.186;6.830;2022-07-10T13:37:40;4.80;;;2.25;;
45676;SDS011;31390;51.186;6.830;2022-07-10T13:40:07;3.47;;;2.20;;
45676;SDS011;31390;51.186;6.830;2022-07-10T13:42:34;3.40;;;1.55;;
45676;SDS011;31390;51.186;6.830;2022-07-10T13:45:01;2.72;;;1.67;;
45676;SDS011;31390;51.186;6.830;2022-07-10T13:47:27;3.15;;;1.60;;
45676;SDS011;31390;51.186;6.830;2022-07-10T13:49:54;2.95;;;1.73;;
45676;SDS011;31390;51.186;6.830;2022-07-10T13:52:20;4.15;;;1.30;;
45676;SDS011;31390;51.186;6.830;2022-07-10T13:54:47;2.60;;;1.25;;
45676;SDS011;31390;51.186;6.830;2022-07-10T13:57:17;2.95;;;1.58;;
45676;SDS011;31390;51.186;6.830;2022-07-10T13:59:44;3.42;;;1.70;;
45676;SDS011;31390;51.186;6.830;2022-07-10T14:02:12;3.00;;;1.42;;
45676;SDS011;31390;51.186;6.830;2022-07-10T14:04:42;5.85;;;1.58;;
45676;SDS011;31390;51.186;6.830;2022-07-10T14:07:09;4.63;;;1.50;;
45676;SDS011;31390;51.186;6.830;2022-07-10T14:09:37;2.88;;;1.60;;
45676;SDS011;31390;51.186;6.830;2022-07-10T14:12:03;3.40;;;1.45;;
45676;SDS011;31390;51.186;6.830;2022-07-10T14:14:30;2.92;;;1.73;;
45676;SDS011;31390;51.186;6.830;2022-07-10T14:16:57;3.30;;;1.50;;
45676;SDS011;31390;51.186;6.830;2022-07-10T14:19:26;3.25;;;1.70;;
45676;SDS011;31390;51.186;6.830;2022-07-10T14:21:52;4.35;;;1.70;;
45676;SDS011;31390;51.186;6.830;2022-07-10T14:24:21;4.80;;;1.80;;
45676;SDS011;31390;51.186;6.830;2022-07-10T14:26:49;2.53;;;1.75;;
45676;SDS011;31390;51.186;6.830;2022-07-10T14:29:15;2.92;;;2.15;;
45676;SDS011;31390;51.186;6.830;2022-07-10T14:31:43;3.20;;;1.75;;
45676;SDS011;31390;51.186;6.830;2022-07-10T14:34:13;5.30;;;1.58;;
45676;SDS011;31390;51.186;6.830;2022-07-10T14:36:40;4.43;;;1.98;;
45676;SDS011;31390;51.186;6.830;2022-07-10T14:39:14;2.70;;;1.45;;
45676;SDS011;31390;51.186;6.830;2022-07-10T14:41:41;3.20;;;1.50;;
45676;SDS011;31390;51.186;6.830;2022-07-10T14:44:07;3.20;;;1.70;;
45676;SDS011;31390;51.186;6.830;2022-07-10T14:46:34;3.08;;;1.83;;
45676;SDS011;31390;51.186;6.830;2022-07-10T14:49:01;2.70;;;1.50;;
45676;SDS011;31390;51.186;6.830;2022-07-10T14:51:28;2.13;;;1.23;;
45676;SDS011;31390;51.186;6.830;2022-07-10T14:53:55;4.13;;;1.70;;
45676;SDS011;31390;51.186;6.830;2022-07-10T14:56:22;2.67;;;1.65;;
45676;SDS011;31390;51.186;6.830;2022-07-10T14:58:49;1.98;;;1.30;;
45676;SDS011;31390;51.186;6.830;2022-07-10T15:01:36;4.00;;;1.77;;
45676;SDS011;31390;51.186;6.830;2022-07-10T15:04:02;5.78;;;2.47;;
45676;SDS011;31390;51.186;6.830;2022-07-10T15:06:29;3.13;;;1.60;;
45676;SDS011;31390;51.186;6.830;2022-07-10T15:08:56;2.60;;;1.60;;
45676;SDS011;31390;51.186;6.830;2022-07-10T15:11:23;3.30;;;1.40;;
45676;SDS011;31390;51.186;6.830;2022-07-10T15:13:54;3.05;;;1.50;;
45676;SDS011;31390;51.186;6.830;2022-07-10T15:16:28;2.78;;;1.63;;
45676;SDS011;31390;51.186;6.830;2022-07-10T15:18:55;5.70;;;1.80;;
45676;SDS011;31390;51.186;6.830;2022-07-10T15:21:22;4.00;;;1.20;;
45676;SDS011;31390;51.186;6.830;2022-07-10T15:23:49;2.15;;;1.33;;
45676;SDS011;31390;51.186;6.830;2022-07-10T15:26:16;2.30;;;1.40;;
45676;SDS011;31390;51.186;6.830;2022-07-10T15:28:44;2.50;;;1.17;;